Perrinton, MI (48871)

7:33 PM EST on February 12, 2016 (GMT -0500)
APRSWXNET | | Change Station
CLOSE
Current Station
Personal Weather Station
Location: Middleton, MI
Elevation: 738 ft
Nearby Weather Stations

Elev 738 ft 43.19 °N, 84.71 °W | Updated 24 minutes ago

Overcast
Overcast
14 °F
Feels Like -1 °F
N
14
Wind Variable Wind from NNW
Gusts 0.0 mph

Today
High -- | Low -- °F
--% Chance of Precip.
Yesterday
High -- | Low -- °F
Precip. -- in
Pressure 30.13 in
Visibility 5.0 miles
Clouds Scattered Clouds 1600 ft
Mostly Cloudy 2300 ft
Overcast 3400 ft
Windchill -1 °F
Dew Point 7 °F
Humidity 73%
Rainfall in
Snow Depth Not available.
7:41 AM 6:05 PM
Waxing Crescent, 25% visible
METAR KAMN 130013Z AUTO 34014G24KT 5SM -SN SCT016 BKN023 OVC034 M10/M15 A3013 RMK AO2 T11051153
Pressure 30.13 in
Visibility 5.0 miles
Clouds Scattered Clouds 1600 ft
Mostly Cloudy 2300 ft
Overcast 3400 ft
Windchill -1 °F
Dew Point 7 °F
Humidity 73%
Rainfall in
Snow Depth Not available.
7:41 AM 6:05 PM
Waxing Crescent, 25% visible
METAR KAMN 130013Z AUTO 34014G24KT 5SM -SN SCT016 BKN023 OVC034 M10/M15 A3013 RMK AO2 T11051153

10-Day Weather Forecast

Almanac

Astronomy

Feb. 12, 2016 Rise Set
Actual Time
Civil Twilight
Nautical Twilight
Astronomical Twilight
Moon
Length of Visible Light
Length of Day
Tomorrow will be .
, % of the Moon is Illuminated

Today's Extremes

State Highs State Lows

Community

WunderPhotos

Upload Photos

1,892,444 photos uploaded!

WunderBlog® & News

Nearby

Air Quality

  Air Quality AQ Index Pollutant
Not available.

Snow Depth

Station Depth Elevation

Earthquake Activity

City Distance Mag. Time & Date
Minimum magnitude displayed is 2.5.

Coastal Water Temperatures

Place Temperature

Stations

Nearby Weather Stations

Station Location Temp. Windchill Dew Point Humidity Wind Precip. Elev Updated Type
                   

Watches & Warnings

There are currently no watches in effect.